createdAt,value
2022-11-01T00:02:18.270Z,100694.88
2022-11-01T00:04:46.093Z,100694.88
2022-11-01T00:07:13.972Z,100682.75
2022-11-01T00:09:41.794Z,100686.59
2022-11-01T00:12:10.927Z,100681.91
2022-11-01T00:14:38.726Z,100678.47
2022-11-01T00:17:06.597Z,100664.81
2022-11-01T00:19:34.485Z,100669.47
2022-11-01T00:22:02.303Z,100668.78
2022-11-01T00:24:31.490Z,100671.06
2022-11-01T00:26:59.720Z,100657.44
2022-11-01T00:29:28.862Z,100663.13
2022-11-01T00:31:56.741Z,100655.41
2022-11-01T00:34:24.641Z,100653.84
2022-11-01T00:36:52.401Z,100655.03
2022-11-01T00:39:20.395Z,100646.06
2022-11-01T00:41:48.122Z,100640.75
2022-11-01T00:44:15.911Z,100642.81
2022-11-01T00:46:45.053Z,100625.38
2022-11-01T00:49:12.921Z,100633.16
2022-11-01T00:51:40.881Z,100630.59
2022-11-01T00:54:08.749Z,100637.16
2022-11-01T00:56:36.535Z,100638.53
2022-11-01T00:59:04.827Z,100636.81
2022-11-01T01:04:02.627Z,100629.75
2022-11-01T01:06:30.483Z,100633.72
2022-11-01T01:09:00.370Z,100631.84
2022-11-01T01:11:28.215Z,100619.41
2022-11-01T01:13:55.986Z,100632.53
2022-11-01T01:16:24.076Z,100636.50
2022-11-01T01:18:52.532Z,100640.31
2022-11-01T01:21:21.683Z,100640.31
2022-11-01T01:23:51.400Z,100646.19
2022-11-01T01:26:19.148Z,100632.56
2022-11-01T01:28:47.110Z,100623.59
2022-11-01T01:31:15.490Z,100620.84
2022-11-01T01:33:43.242Z,100630.16
2022-11-01T01:36:11.758Z,100619.09
2022-11-01T01:38:40.897Z,100632.75
2022-11-01T01:41:25.987Z,100634.81
2022-11-01T01:43:53.974Z,100639.47
2022-11-01T01:46:22.003Z,100630.16
2022-11-01T01:48:54.977Z,100622.41
2022-11-01T01:51:27.322Z,100633.44
2022-11-01T01:53:58.243Z,100625.31
2022-11-01T01:56:31.927Z,100628.56
2022-11-01T01:59:04.902Z,100625.81
2022-11-01T02:01:35.246Z,100622.03
2022-11-01T02:04:04.532Z,100616.50
2022-11-01T02:06:34.503Z,100624.44
2022-11-01T02:09:06.190Z,100617.88
2022-11-01T02:11:34.144Z,100619.94
2022-11-01T02:14:02.809Z,100622.38
2022-11-01T02:16:53.787Z,100619.41
2022-11-01T02:19:52.465Z,100622.84
2022-11-01T02:22:31.617Z,100617.16
2022-11-01T02:25:25.487Z,100619.06
2022-11-01T02:30:39.962Z,100610.03
2022-11-01T02:33:18.086Z,100617.31
2022-11-01T02:35:57.082Z,100614.38
2022-11-01T02:38:29.693Z,100618.00
2022-11-01T02:41:08.505Z,100617.13
2022-11-01T02:43:45.428Z,100612.47
2022-11-01T02:46:30.909Z,100612.63
2022-11-01T02:49:00.430Z,100611.59
2022-11-01T02:51:29.818Z,100601.41
2022-11-01T02:54:01.431Z,100601.59
2022-11-01T02:56:29.938Z,100596.94
2022-11-01T02:58:58.882Z,100599.69
2022-11-01T03:01:30.908Z,100597.63
2022-11-01T03:04:01.531Z,100592.25
2022-11-01T03:06:35.866Z,100603.16
2022-11-01T03:09:08.483Z,100600.56
2022-11-01T03:11:45.152Z,100609.88
2022-11-01T03:14:21.168Z,100603.50
2022-11-01T03:16:56.944Z,100607.13
2022-11-01T03:19:38.642Z,100619.19
2022-11-01T03:22:12.015Z,100615.56
2022-11-01T03:24:47.051Z,100627.47
2022-11-01T03:27:20.995Z,100627.66
2022-11-01T03:29:56.941Z,100634.03
2022-11-01T03:34:56.105Z,100628.72
2022-11-01T03:37:25.120Z,100633.38
2022-11-01T03:39:55.368Z,100638.69
2022-11-01T03:42:25.036Z,100630.41
2022-11-01T03:44:59.291Z,100645.97
2022-11-01T03:47:27.431Z,100649.97
2022-11-01T03:50:19.828Z,100646.81
2022-11-01T03:52:48.243Z,100649.25
2022-11-01T03:55:19.910Z,100657.00
2022-11-01T04:00:17.520Z,100669.78
2022-11-01T04:02:45.486Z,100679.97
2022-11-01T04:05:13.603Z,100667.03
2022-11-01T04:07:43.613Z,100677.72
2022-11-01T04:10:11.913Z,100668.75
2022-11-01T04:12:40.246Z,100674.97
2022-11-01T04:15:26.291Z,100681.34
2022-11-01T04:18:21.511Z,100693.94
2022-11-01T04:20:49.840Z,100694.47
2022-11-01T04:23:19.455Z,100708.59
2022-11-01T04:25:47.818Z,100704.97
2022-11-01T04:28:15.674Z,100699.44
2022-11-01T04:30:43.919Z,100703.94
2022-11-01T04:33:11.965Z,100714.81
2022-11-01T04:35:39.789Z,100725.69
2022-11-01T04:38:07.803Z,100727.44
2022-11-01T04:40:37.018Z,100729.81
2022-11-01T04:43:05.379Z,100733.81
2022-11-01T04:45:33.214Z,100738.09
2022-11-01T04:48:05.698Z,100730.50
2022-11-01T04:50:34.048Z,100732.59
2022-11-01T04:53:03.006Z,100749.00
2022-11-01T04:55:31.213Z,100745.03
2022-11-01T04:58:00.339Z,100754.00
2022-11-01T05:00:28.123Z,100751.41
2022-11-01T05:03:02.419Z,100755.53
2022-11-01T05:05:30.874Z,100759.53
2022-11-01T05:10:37.311Z,100768.31
2022-11-01T05:13:07.156Z,100768.13
2022-11-01T05:15:40.059Z,100773.66
2022-11-01T05:18:11.759Z,100781.25
2022-11-01T05:20:39.520Z,100780.22
2022-11-01T05:23:07.654Z,100791.13
2022-11-01T05:25:38.166Z,100786.44
2022-11-01T05:28:10.132Z,100796.31
2022-11-01T05:30:38.905Z,100789.22
2022-11-01T05:33:08.058Z,100800.97
2022-11-01T05:35:37.094Z,100802.84
2022-11-01T05:38:05.721Z,100815.81
2022-11-01T05:40:34.009Z,100812.19
2022-11-01T05:43:02.025Z,100819.63
2022-11-01T05:45:31.435Z,100822.03
2022-11-01T05:48:03.376Z,100822.03
2022-11-01T05:50:31.782Z,100821.69
2022-11-01T05:53:08.140Z,100828.59
2022-11-01T05:55:36.119Z,100828.25
2022-11-01T05:58:04.325Z,100829.97
2022-11-01T06:00:34.064Z,100840.00
2022-11-01T06:03:02.286Z,100841.41
2022-11-01T06:05:31.487Z,100849.69
2022-11-01T06:08:01.832Z,100856.03
2022-11-01T06:10:29.699Z,100854.50
2022-11-01T06:12:57.709Z,100869.34
2022-11-01T06:15:25.795Z,100879.53
2022-11-01T06:17:58.479Z,100892.34
2022-11-01T06:20:26.695Z,100902.84
2022-11-01T06:22:54.452Z,100918.56
2022-11-01T06:25:22.533Z,100925.31
2022-11-01T06:27:50.467Z,100927.22
2022-11-01T06:30:18.657Z,100924.63
2022-11-01T06:32:46.417Z,100952.59
2022-11-01T06:35:15.771Z,100951.72
2022-11-01T06:37:43.557Z,100957.06
2022-11-01T06:40:13.078Z,100959.13
2022-11-01T06:42:45.537Z,100975.34
2022-11-01T06:45:14.555Z,100978.44
2022-11-01T06:47:47.393Z,100983.97
2022-11-01T06:50:17.000Z,100980.69
2022-11-01T06:52:44.765Z,100993.09
2022-11-01T06:55:12.637Z,101011.75
2022-11-01T06:57:40.475Z,101010.19
2022-11-01T07:00:10.170Z,101027.94
2022-11-01T07:02:38.176Z,101027.41
2022-11-01T07:05:06.883Z,101028.59
2022-11-01T07:07:35.986Z,101036.16
2022-11-01T07:10:03.960Z,101043.22
2022-11-01T07:12:31.684Z,101049.94
2022-11-01T07:14:59.502Z,101052.00
2022-11-01T07:17:27.836Z,101055.97
2022-11-01T07:19:55.648Z,101053.53
2022-11-01T07:22:23.417Z,101056.59
2022-11-01T07:24:52.606Z,101067.84
2022-11-01T07:27:20.763Z,101077.47
2022-11-01T07:29:48.700Z,101080.53
2022-11-01T07:32:16.467Z,101090.03
2022-11-01T07:34:44.246Z,101083.94
2022-11-01T07:37:12.016Z,101080.66
2022-11-01T07:39:40.481Z,101088.06
2022-11-01T07:42:09.724Z,101101.16
2022-11-01T07:44:37.869Z,101102.50
2022-11-01T07:47:05.813Z,101107.16
2022-11-01T07:49:33.601Z,101110.09
2022-11-01T07:52:02.956Z,101105.75
2022-11-01T07:54:31.064Z,101113.16
2022-11-01T07:56:58.875Z,101109.53
2022-11-01T07:59:28.058Z,101118.69
2022-11-01T08:01:55.880Z,101119.88
2022-11-01T08:04:24.513Z,101120.88
2022-11-01T08:06:52.549Z,101121.75
2022-11-01T08:09:21.938Z,101131.91
2022-11-01T08:11:49.861Z,101145.03
2022-11-01T08:14:17.690Z,101146.06
2022-11-01T08:16:49.774Z,101137.63
2022-11-01T08:19:17.591Z,101146.38
2022-11-01T08:21:45.602Z,101149.13
2022-11-01T08:24:13.676Z,101151.88
2022-11-01T08:26:41.494Z,101154.63
2022-11-01T08:29:09.360Z,101160.00
2022-11-01T08:31:40.373Z,101155.72
2022-11-01T08:34:14.488Z,101160.22
2022-11-01T08:36:44.643Z,101160.06
2022-11-01T08:39:12.696Z,101171.47
2022-11-01T08:41:40.543Z,101165.34
2022-11-01T08:44:08.552Z,101180.22
2022-11-01T08:46:36.574Z,101184.94
2022-11-01T08:49:04.402Z,101178.59
2022-11-01T08:51:33.542Z,101183.16
2022-11-01T08:54:01.335Z,101181.31
2022-11-01T08:56:29.386Z,101192.28
2022-11-01T08:58:57.872Z,101183.03
2022-11-01T09:01:27.131Z,101183.59
2022-11-01T09:03:56.961Z,101196.25
2022-11-01T09:06:25.239Z,101193.38
2022-11-01T09:08:54.732Z,101204.97
2022-11-01T09:11:23.544Z,101204.13
2022-11-01T09:13:52.053Z,101197.63
2022-11-01T09:16:20.353Z,101209.75
2022-11-01T09:18:48.291Z,101212.38
2022-11-01T09:21:17.108Z,101213.28
2022-11-01T09:23:46.023Z,101212.44
2022-11-01T09:26:15.231Z,101222.47
2022-11-01T09:28:43.223Z,101227.00
2022-11-01T09:31:20.972Z,101227.72
2022-11-01T09:33:49.426Z,101219.59
2022-11-01T09:36:17.326Z,101214.91
2022-11-01T09:38:45.080Z,101222.06
2022-11-01T09:41:26.714Z,101227.94
2022-11-01T09:43:55.951Z,101230.00
2022-11-01T09:46:27.192Z,101217.69
2022-11-01T09:48:56.457Z,101224.09
2022-11-01T09:51:26.043Z,101222.19
2022-11-01T09:53:56.885Z,101233.25
2022-11-01T09:56:30.444Z,101232.38
2022-11-01T09:59:06.775Z,101236.19
2022-11-01T10:01:46.606Z,101228.00
2022-11-01T10:04:49.690Z,101234.09
2022-11-01T10:07:23.348Z,101233.53
2022-11-01T10:10:00.405Z,101237.16
2022-11-01T10:12:41.832Z,101235.59
2022-11-01T10:15:27.299Z,101236.94
2022-11-01T10:17:57.074Z,101242.16
2022-11-01T10:20:29.605Z,101239.69
2022-11-01T10:22:58.080Z,101244.81
2022-11-01T10:25:29.059Z,101244.19
2022-11-01T10:28:05.658Z,101240.50
2022-11-01T10:30:38.304Z,101242.41
2022-11-01T10:33:24.149Z,101236.69
2022-11-01T10:35:57.135Z,101244.16
2022-11-01T10:41:27.394Z,101245.38
2022-11-01T10:44:01.949Z,101253.69
2022-11-01T10:46:35.130Z,101251.59
2022-11-01T10:49:07.440Z,101256.13
2022-11-01T10:51:36.859Z,101263.56
2022-11-01T10:54:10.925Z,101249.53
2022-11-01T10:56:45.998Z,101255.94
2022-11-01T10:59:20.297Z,101255.94
2022-11-01T11:01:50.642Z,101243.97
2022-11-01T11:04:22.242Z,101257.66
2022-11-01T11:06:50.354Z,101251.78
2022-11-01T11:09:26.309Z,101245.53
2022-11-01T11:11:58.634Z,101243.81
2022-11-01T11:14:31.794Z,101253.34
2022-11-01T11:17:01.170Z,101244.16
2022-11-01T11:19:34.904Z,101250.38
2022-11-01T11:22:06.548Z,101264.44
2022-11-01T11:24:36.443Z,101260.28
2022-11-01T11:27:13.209Z,101247.09
2022-11-01T11:29:49.169Z,101250.06
2022-11-01T11:32:19.979Z,101243.63
2022-11-01T11:34:56.035Z,101253.91
2022-11-01T11:37:26.280Z,101259.63
2022-11-01T11:40:19.645Z,101258.38
2022-11-01T11:42:49.665Z,101246.09
2022-11-01T11:45:28.504Z,101259.63
2022-11-01T11:47:57.564Z,101248.69
2022-11-01T11:50:32.789Z,101254.94
2022-11-01T11:53:09.824Z,101261.34
2022-11-01T11:55:43.633Z,101266.91
2022-11-01T11:58:26.956Z,101249.19
2022-11-01T12:01:01.462Z,101258.38
2022-11-01T12:03:29.693Z,101252.81
2022-11-01T12:06:01.348Z,101258.03
2022-11-01T12:08:48.547Z,101257.50
2022-11-01T12:11:17.244Z,101258.19
2022-11-01T12:13:46.304Z,101236.53
2022-11-01T12:16:21.445Z,101242.75
2022-11-01T12:18:52.208Z,101237.22
2022-11-01T12:21:23.823Z,101244.47
2022-11-01T12:23:54.963Z,101242.06
2022-11-01T12:26:25.048Z,101241.03
2022-11-01T12:29:00.034Z,101240.00
2022-11-01T12:31:31.635Z,101246.75
2022-11-01T12:34:05.273Z,101236.88
2022-11-01T12:36:42.865Z,101242.25
2022-11-01T12:39:26.740Z,101244.16
2022-11-01T12:41:59.543Z,101249.69
2022-11-01T12:44:36.397Z,101238.59
2022-11-01T12:47:13.287Z,101245.19
2022-11-01T12:49:48.799Z,101245.38
2022-11-01T12:52:25.174Z,101233.63
2022-11-01T12:55:04.124Z,101243.63
2022-11-01T12:57:33.386Z,101235.88
2022-11-01T13:00:02.519Z,101241.41
2022-11-01T13:02:58.924Z,101238.13
2022-11-01T13:05:35.428Z,101238.13
2022-11-01T13:08:14.906Z,101234.50
2022-11-01T13:10:46.963Z,101241.44
2022-11-01T13:13:22.650Z,101243.69
2022-11-01T13:16:01.189Z,101249.44
2022-11-01T13:18:40.546Z,101249.09
2022-11-01T13:21:15.746Z,101255.19
2022-11-01T13:23:50.243Z,101248.09
2022-11-01T13:26:24.250Z,101246.72
2022-11-01T13:29:01.385Z,101257.47
2022-11-01T13:31:42.062Z,101259.91
2022-11-01T13:34:27.607Z,101252.28
2022-11-01T13:37:04.326Z,101241.72
2022-11-01T13:39:43.887Z,101240.34
2022-11-01T13:42:16.094Z,101226.31
2022-11-01T13:44:47.971Z,101232.41
2022-11-01T13:47:32.649Z,101232.72
2022-11-01T13:50:23.598Z,101237.78
2022-11-01T13:52:59.230Z,101228.94
2022-11-01T13:55:36.349Z,101230.19
2022-11-01T13:58:06.877Z,101231.38
2022-11-01T14:00:46.008Z,101234.31
2022-11-01T14:03:29.728Z,101228.09
2022-11-01T14:06:36.656Z,101231.91
2022-11-01T14:09:29.538Z,101221.53
2022-11-01T14:11:59.208Z,101221.19
2022-11-01T14:14:53.155Z,101234.88
2022-11-01T14:18:01.450Z,101233.28
2022-11-01T14:20:46.857Z,101236.22
2022-11-01T14:23:54.268Z,101219.94
2022-11-01T14:26:48.644Z,101226.72
2022-11-01T14:29:17.053Z,101236.94
2022-11-01T14:31:47.748Z,101239.53
2022-11-01T14:34:32.817Z,101232.25
2022-11-01T14:37:10.799Z,101235.19
2022-11-01T14:39:42.263Z,101231.72
2022-11-01T14:42:15.566Z,101240.91
2022-11-01T14:44:50.860Z,101239.16
2022-11-01T14:47:29.083Z,101233.81
2022-11-01T14:50:02.352Z,101244.22
2022-11-01T14:52:36.423Z,101234.16
2022-11-01T14:55:13.472Z,101237.97
2022-11-01T14:57:45.335Z,101241.06
2022-11-01T15:00:29.037Z,101251.44
2022-11-01T15:05:27.785Z,101251.06
2022-11-01T15:07:57.514Z,101239.13
2022-11-01T15:10:25.611Z,101265.44
2022-11-01T15:12:58.757Z,101254.38
2022-11-01T15:15:29.858Z,101267.66
2022-11-01T15:18:00.470Z,101262.47
2022-11-01T15:20:33.062Z,101262.66
2022-11-01T15:23:04.098Z,101259.69
2022-11-01T15:25:32.291Z,101259.88
2022-11-01T15:28:01.548Z,101263.50
2022-11-01T15:30:32.101Z,101258.13
2022-11-01T15:33:17.121Z,101255.88
2022-11-01T15:35:53.985Z,101263.50
2022-11-01T15:38:22.189Z,101274.34
2022-11-01T15:40:52.217Z,101265.38
2022-11-01T15:43:24.225Z,101273.84
2022-11-01T15:45:54.912Z,101269.66
2022-11-01T15:48:29.165Z,101259.63
2022-11-01T15:51:00.687Z,101264.63
2022-11-01T15:53:32.284Z,101265.84
2022-11-01T15:56:06.605Z,101273.41
2022-11-01T15:58:40.667Z,101262.72
2022-11-01T16:01:13.840Z,101268.56
2022-11-01T16:03:45.201Z,101271.69
2022-11-01T16:06:23.000Z,101274.63
2022-11-01T16:08:57.076Z,101269.56
2022-11-01T16:11:27.192Z,101264.38
2022-11-01T16:14:01.311Z,101259.88
2022-11-01T16:16:29.440Z,101264.13
2022-11-01T16:18:57.415Z,101265.19
2022-11-01T16:21:30.497Z,101262.59
2022-11-01T16:24:05.387Z,101272.22
2022-11-01T16:26:52.958Z,101260.66
2022-11-01T16:29:38.675Z,101269.41
2022-11-01T16:32:10.026Z,101272.53
2022-11-01T16:34:38.211Z,101262.97
2022-11-01T16:37:19.415Z,101282.00
2022-11-01T16:39:48.261Z,101289.22
2022-11-01T16:42:17.134Z,101291.28
2022-11-01T16:44:47.381Z,101293.19
2022-11-01T16:47:17.391Z,101304.53
2022-11-01T16:49:50.212Z,101288.16
2022-11-01T16:52:18.920Z,101305.19
2022-11-01T16:54:49.492Z,101299.84
2022-11-01T16:57:24.213Z,101304.69
2022-11-01T16:59:54.621Z,101306.72
2022-11-01T17:02:26.194Z,101299.63
2022-11-01T17:04:58.500Z,101307.53
2022-11-01T17:07:27.644Z,101306.97
2022-11-01T17:09:55.682Z,101302.47
2022-11-01T17:12:23.599Z,101309.03
2022-11-01T17:14:53.636Z,101309.38
2022-11-01T17:17:24.574Z,101323.34
2022-11-01T17:19:59.998Z,101318.69
2022-11-01T17:22:34.728Z,101316.22
2022-11-01T17:25:03.493Z,101319.50
2022-11-01T17:27:31.725Z,101331.72
2022-11-01T17:30:01.228Z,101327.22
2022-11-01T17:32:29.257Z,101322.88
2022-11-01T17:34:58.144Z,101326.66
2022-11-01T17:37:31.775Z,101324.19
2022-11-01T17:40:00.028Z,101331.94
2022-11-01T17:42:28.345Z,101321.94
2022-11-01T17:44:56.463Z,101329.50
2022-11-01T17:47:26.307Z,101320.34
2022-11-01T17:49:54.656Z,101324.44
2022-11-01T17:52:22.838Z,101329.06
2022-11-01T17:54:53.483Z,101320.97
2022-11-01T17:57:21.556Z,101322.16
2022-11-01T17:59:49.512Z,101327.84
2022-11-01T18:02:18.004Z,101316.94
2022-11-01T18:04:47.296Z,101314.38
2022-11-01T18:07:18.585Z,101332.09
2022-11-01T18:09:46.596Z,101320.50
2022-11-01T18:12:20.235Z,101320.50
2022-11-01T18:14:56.430Z,101316.19
2022-11-01T18:17:46.718Z,101314.75
2022-11-01T18:20:36.393Z,101319.72
2022-11-01T18:23:09.541Z,101311.75
2022-11-01T18:25:41.309Z,101318.28
2022-11-01T18:28:13.811Z,101314.09
2022-11-01T18:30:43.531Z,101312.53
2022-11-01T18:33:20.624Z,101307.88
2022-11-01T18:35:55.947Z,101316.31
2022-11-01T18:38:30.219Z,101321.13
2022-11-01T18:41:00.294Z,101303.16
2022-11-01T18:43:32.067Z,101304.03
2022-11-01T18:46:23.839Z,101311.88
2022-11-01T18:48:51.724Z,101302.75
2022-11-01T18:51:26.655Z,101304.47
2022-11-01T18:54:01.986Z,101316.53
2022-11-01T18:56:30.582Z,101304.97
2022-11-01T18:59:00.372Z,101312.50
2022-11-01T19:01:32.331Z,101304.25
2022-11-01T19:04:03.068Z,101305.56
2022-11-01T19:06:33.488Z,101311.78
2022-11-01T19:09:13.967Z,101310.19
2022-11-01T19:11:41.836Z,101305.88
2022-11-01T19:14:16.621Z,101310.38
2022-11-01T19:16:45.567Z,101306.19
2022-11-01T19:19:17.261Z,101307.06
2022-11-01T19:21:46.509Z,101313.88
2022-11-01T19:24:30.073Z,101305.47
2022-11-01T19:26:59.124Z,101305.91
2022-11-01T19:29:29.568Z,101307.78
2022-11-01T19:31:59.043Z,101309.69
2022-11-01T19:34:30.467Z,101300.53
2022-11-01T19:37:02.197Z,101299.81
2022-11-01T19:39:33.550Z,101299.13
2022-11-01T19:42:05.111Z,101291.88
2022-11-01T19:44:33.537Z,101293.75
2022-11-01T19:47:29.851Z,101302.19
2022-11-01T19:49:57.746Z,101302.47
2022-11-01T19:52:37.326Z,101301.31
2022-11-01T19:55:38.350Z,101296.41
2022-11-01T19:58:34.684Z,101299.19
2022-11-01T20:01:36.525Z,101295.69
2022-11-01T20:04:10.984Z,101307.75
2022-11-01T20:06:46.595Z,101306.00
2022-11-01T20:09:20.607Z,101303.25
2022-11-01T20:11:48.624Z,101299.09
2022-11-01T20:14:16.472Z,101300.09
2022-11-01T20:16:44.492Z,101292.84
2022-11-01T20:19:16.395Z,101292.13
2022-11-01T20:21:45.811Z,101294.88
2022-11-01T20:24:14.021Z,101297.78
2022-11-01T20:26:43.360Z,101297.63
2022-11-01T20:29:11.754Z,101295.19
2022-11-01T20:31:40.771Z,101299.69
2022-11-01T20:34:09.328Z,101291.72
2022-11-01T20:36:38.259Z,101291.72
2022-11-01T20:39:09.083Z,101300.13
2022-11-01T20:41:39.740Z,101300.13
2022-11-01T20:44:08.935Z,101300.13
2022-11-01T20:46:36.884Z,101295.78
2022-11-01T20:49:04.771Z,101293.03
2022-11-01T20:51:32.585Z,101295.97
2022-11-01T20:54:00.332Z,101299.75
2022-11-01T20:56:28.365Z,101302.63
2022-11-01T20:58:56.212Z,101304.53
2022-11-01T21:01:25.898Z,101308.16
2022-11-01T21:03:54.215Z,101313.81
2022-11-01T21:06:23.363Z,101301.91
2022-11-01T21:08:51.152Z,101297.41
2022-11-01T21:11:23.462Z,101293.66
2022-11-01T21:13:52.394Z,101292.38
2022-11-01T21:16:29.356Z,101300.19
2022-11-01T21:19:02.702Z,101306.69
2022-11-01T21:21:39.188Z,101312.22
2022-11-01T21:24:32.311Z,101303.53
2022-11-01T21:27:08.942Z,101306.16
2022-11-01T21:29:39.642Z,101306.44
2022-11-01T21:32:27.057Z,101301.81
2022-11-01T21:34:55.109Z,101304.84
2022-11-01T21:37:23.821Z,101304.84
2022-11-01T21:39:58.994Z,101307.47
2022-11-01T21:42:33.625Z,101305.91
2022-11-01T21:45:16.420Z,101294.28
2022-11-01T21:47:45.885Z,101288.78
2022-11-01T21:50:13.785Z,101288.78
2022-11-01T21:52:41.727Z,101287.91
2022-11-01T21:55:09.780Z,101288.94
2022-11-01T21:57:37.683Z,101283.56
2022-11-01T22:00:06.546Z,101294.59
2022-11-01T22:02:34.618Z,101284.75
2022-11-01T22:05:04.340Z,101283.75
2022-11-01T22:07:32.267Z,101291.44
2022-11-01T22:10:00.032Z,101281.44
2022-11-01T22:12:27.807Z,101290.69
2022-11-01T22:14:55.612Z,101287.94
2022-11-01T22:17:23.846Z,101290.00
2022-11-01T22:19:51.645Z,101279.00
2022-11-01T22:22:20.922Z,101284.31
2022-11-01T22:24:48.784Z,101273.63
2022-11-01T22:27:16.678Z,101257.97
2022-11-01T22:29:44.472Z,101261.75
2022-11-01T22:32:12.298Z,101253.47
2022-11-01T22:34:40.056Z,101254.50
2022-11-01T22:37:13.647Z,101257.97
2022-11-01T22:39:43.309Z,101250.00
2022-11-01T22:42:12.487Z,101255.66
2022-11-01T22:44:41.585Z,101248.59
2022-11-01T22:47:22.280Z,101256.66
2022-11-01T22:49:54.060Z,101247.84
2022-11-01T22:52:31.152Z,101240.59
2022-11-01T22:55:05.317Z,101236.97
2022-11-01T22:57:36.030Z,101239.84
2022-11-01T23:00:24.622Z,101246.50
2022-11-01T23:02:56.740Z,101237.56
2022-11-01T23:05:25.653Z,101248.72
2022-11-01T23:07:55.850Z,101240.13
2022-11-01T23:10:28.843Z,101245.50
2022-11-01T23:13:34.197Z,101229.13
2022-11-01T23:16:04.855Z,101223.94
2022-11-01T23:18:37.546Z,101231.03
2022-11-01T23:21:07.334Z,101234.59
2022-11-01T23:23:36.992Z,101232.34
2022-11-01T23:26:06.414Z,101230.00
2022-11-01T23:28:35.383Z,101235.50
2022-11-01T23:31:05.687Z,101232.75
2022-11-01T23:33:37.367Z,101235.25
2022-11-01T23:36:05.967Z,101230.72
2022-11-01T23:38:37.261Z,101233.22
2022-11-01T23:41:06.914Z,101229.44
2022-11-01T23:43:37.787Z,101228.44
2022-11-01T23:46:05.868Z,101221.03
2022-11-01T23:48:34.041Z,101220.84
2022-11-01T23:51:01.900Z,101219.84
2022-11-01T23:53:34.933Z,101215.78
2022-11-01T23:56:07.933Z,101214.78
2022-11-01T23:58:38.302Z,101216.47
